Time;durP1;ratioP1;P1;durP2;ratioP2;P2;SDS_P1;SDS_P2;PMS_P1;PMS_P2;Temp;Humidity;BMP_temperature;BMP_pressure;BME280_temperature;BME280_humidity;BME280_pressure;Samples;Min_cycle;Max_cycle;Signal;HPM_P1;HPM_P2
2023/11/26 00:00:53;;;;;;;0.50;0.30;;;;;;;3.15;82.32;96848.43;80735;1299;3024987;-69
2023/11/26 00:03:20;;;;;;;0.70;0.40;;;;;;;3.05;82.40;96847.98;82034;1295;3012375;-65
2023/11/26 00:05:47;;;;;;;1.10;0.50;;;;;;;2.94;82.62;96844.56;81988;1296;3011327;-67
2023/11/26 00:08:15;;;;;;;0.40;0.30;;;;;;;2.57;84.00;96836.95;80717;1297;3049186;-65
2023/11/26 00:10:42;;;;;;;0.70;0.40;;;;;;;2.50;84.88;96842.35;82051;1296;3012531;-71
2023/11/26 00:13:09;;;;;;;0.40;0.40;;;;;;;2.45;85.31;96843.84;82021;1296;3011201;-72
2023/11/26 00:15:37;;;;;;;0.40;0.20;;;;;;;2.30;85.78;96851.48;80752;1297;3025767;-69
2023/11/26 00:18:04;;;;;;;1.10;0.50;;;;;;;2.70;85.34;96845.54;82032;1296;3012903;-66
2023/11/26 00:20:31;;;;;;;0.60;0.30;;;;;;;3.33;83.18;96849.54;82039;1294;3011537;-73
2023/11/26 00:22:59;;;;;;;0.40;0.40;;;;;;;3.42;82.29;96850.84;80788;1294;3025873;-67
2023/11/26 00:25:26;;;;;;;0.40;0.40;;;;;;;3.42;82.16;96848.56;82061;1297;3012772;-72
2023/11/26 00:27:53;;;;;;;0.40;0.40;;;;;;;3.11;82.23;96841.98;82046;1295;3011437;-70
2023/11/26 00:30:21;;;;;;;1.00;0.50;;;;;;;3.01;82.94;96844.76;80776;1299;3050805;-70
2023/11/26 00:32:48;;;;;;;1.20;1.00;;;;;;;2.77;83.55;96833.20;82050;1294;3018665;-70
2023/11/26 00:35:15;;;;;;;1.80;0.80;;;;;;;2.58;84.42;96819.85;82048;1294;3011222;-68
2023/11/26 00:37:43;;;;;;;0.70;0.60;;;;;;;2.52;84.78;96817.98;80731;1298;3025842;-68
2023/11/26 00:40:12;;;;;;;1.00;0.40;;;;;;;2.30;85.63;96812.10;82054;1295;3012389;-67
2023/11/26 00:42:39;;;;;;;2.10;0.80;;;;;;;2.34;85.43;96824.21;82010;1298;3011055;-66
2023/11/26 00:45:07;;;;;;;1.40;0.60;;;;;;;2.30;85.77;96830.86;80770;1295;3050823;-74
2023/11/26 00:47:34;;;;;;;2.70;1.40;;;;;;;2.73;85.43;96821.72;82074;1294;3012686;-69
2023/11/26 00:50:03;;;;;;;7.80;2.40;;;;;;;3.32;83.28;96819.52;82024;1294;3011432;-70
2023/11/26 00:52:32;;;;;;;9.40;3.00;;;;;;;3.40;82.47;96812.71;80728;1294;3049411;-72
2023/11/26 00:54:59;;;;;;;12.80;4.30;;;;;;;3.28;82.51;96809.08;81998;1297;3012713;-71
2023/11/26 00:57:26;;;;;;;17.90;5.60;;;;;;;3.04;83.15;96798.77;81950;1300;3011340;-69
2023/11/26 00:59:54;;;;;;;16.50;6.50;;;;;;;2.89;83.61;96808.83;80749;1294;3051198;-74
2023/11/26 01:02:22;;;;;;;16.60;6.00;;;;;;;2.72;84.37;96805.33;82046;1294;3012266;-67
2023/11/26 01:04:50;;;;;;;14.10;5.70;;;;;;;2.48;85.26;96796.50;82045;1294;3011173;-73
2023/11/26 01:07:19;;;;;;;11.70;5.00;;;;;;;2.45;85.93;96794.30;80770;1295;3049383;-69
2023/11/26 01:09:45;;;;;;;8.50;4.10;;;;;;;2.31;86.26;96795.41;82053;1299;3011302;-69
2023/11/26 01:12:12;;;;;;;2.90;1.70;;;;;;;2.26;86.70;96788.73;82015;1295;3011366;-71
2023/11/26 01:14:41;;;;;;;2.70;1.40;;;;;;;2.71;86.18;96793.52;80706;1294;3051510;-67
2023/11/26 01:17:07;;;;;;;4.70;1.40;;;;;;;3.33;84.03;96785.21;82050;1294;3012527;-72
2023/11/26 01:19:34;;;;;;;2.10;1.10;;;;;;;3.46;82.96;96778.02;82033;1294;3011257;-71
2023/11/26 01:22:03;;;;;;;3.30;1.30;;;;;;;3.36;82.40;96776.20;80704;1298;3048818;-72
2023/11/26 01:24:30;;;;;;;1.70;1.10;;;;;;;3.05;83.09;96772.52;82048;1297;3011236;-68
2023/11/26 01:26:57;;;;;;;1.80;1.20;;;;;;;2.89;83.76;96779.58;82038;1296;3011333;-73
2023/11/26 01:29:25;;;;;;;1.60;1.00;;;;;;;2.83;83.89;96777.94;80801;1295;3050657;-67
2023/11/26 01:31:53;;;;;;;2.00;1.10;;;;;;;2.64;84.37;96775.63;81975;1294;3012399;-71
2023/11/26 01:34:20;;;;;;;1.50;1.20;;;;;;;2.39;85.57;96766.70;82000;1294;3011305;-69
2023/11/26 01:36:48;;;;;;;0.70;0.50;;;;;;;2.15;86.67;96758.89;80743;1295;3047833;-72
2023/11/26 01:39:15;;;;;;;0.80;0.70;;;;;;;2.69;86.41;96760.11;81985;1297;3013047;-68
2023/11/26 01:41:42;;;;;;;1.00;0.60;;;;;;;3.32;84.20;96747.91;82047;1295;3011295;-70
2023/11/26 01:44:10;;;;;;;1.00;0.50;;;;;;;3.26;83.00;96750.58;80769;1294;3050201;-72
2023/11/26 01:46:37;;;;;;;0.80;0.60;;;;;;;3.14;83.50;96755.48;81972;1294;3011540;-70
2023/11/26 01:49:05;;;;;;;0.90;0.50;;;;;;;3.08;83.65;96749.30;82054;1294;3011458;-74
2023/11/26 01:51:33;;;;;;;1.40;0.60;;;;;;;2.91;83.74;96751.13;80713;1295;3049297;-70
2023/11/26 01:54:00;;;;;;;1.90;0.80;;;;;;;2.83;83.94;96753.55;82037;1297;3011400;-70
2023/11/26 01:56:27;;;;;;;1.60;0.60;;;;;;;2.66;84.82;96754.92;82027;1295;3011461;-68
2023/11/26 01:58:56;;;;;;;1.10;0.60;;;;;;;2.46;85.40;96747.92;80731;1294;3051428;-74
2023/11/26 02:01:23;;;;;;;2.40;0.80;;;;;;;2.21;86.05;96738.63;81979;1294;3012949;-71
2023/11/26 02:03:50;;;;;;;1.00;0.50;;;;;;;2.26;86.70;96734.10;82025;1294;3011267;-69
2023/11/26 02:06:19;;;;;;;2.20;1.10;;;;;;;2.77;85.47;96734.45;80733;1299;3048478;-68
2023/11/26 02:08:46;;;;;;;5.60;1.10;;;;;;;3.21;83.87;96733.98;82041;1297;3012341;-73
2023/11/26 02:11:13;;;;;;;4.40;1.00;;;;;;;3.08;83.11;96732.02;81977;1297;3011545;-68
2023/11/26 02:13:47;;;;;;;3.00;1.00;;;;;;;2.83;84.10;96740.39;80776;1295;3051314;-73
2023/11/26 02:16:14;;;;;;;2.70;0.80;;;;;;;2.81;84.42;96725.38;82038;1295;3011227;-69
2023/11/26 02:18:43;;;;;;;4.70;1.20;;;;;;;2.64;84.90;96733.17;80762;1294;3048059;-70
2023/11/26 02:21:11;;;;;;;3.70;1.20;;;;;;;2.59;85.26;96734.52;82090;1295;3011408;-71
2023/11/26 02:23:38;;;;;;;2.20;1.10;;;;;;;2.51;85.33;96729.91;81967;1295;3011322;-72
2023/11/26 02:26:06;;;;;;;1.60;1.00;;;;;;;2.43;85.62;96732.37;80706;1300;3050401;-67
2023/11/26 02:28:33;;;;;;;2.30;1.30;;;;;;;2.31;86.16;96736.89;82059;1296;3012856;-73
2023/11/26 02:31:00;;;;;;;1.50;0.80;;;;;;;2.27;86.40;96729.92;82039;1294;3011392;-71
2023/11/26 02:33:28;;;;;;;3.60;1.60;;;;;;;2.83;85.77;96734.06;80769;1297;3049162;-69
2023/11/26 02:35:55;;;;;;;2.50;1.10;;;;;;;3.45;83.41;96731.58;81966;1300;3018990;-69
2023/11/26 02:38:22;;;;;;;3.50;1.50;;;;;;;3.50;82.50;96737.27;82033;1298;3010997;-73
2023/11/26 02:40:50;;;;;;;5.00;2.00;;;;;;;3.28;82.75;96734.01;80749;1298;3026206;-73
2023/11/26 02:43:17;;;;;;;6.40;1.80;;;;;;;3.19;82.74;96735.89;82027;1297;3013037;-70
2023/11/26 02:45:45;;;;;;;3.30;1.70;;;;;;;2.85;83.55;96742.68;82015;1295;3011451;-67
2023/11/26 02:48:13;;;;;;;6.60;2.70;;;;;;;2.66;84.43;96746.46;80789;1295;3047907;-71
2023/11/26 02:50:39;;;;;;;7.40;2.80;;;;;;;2.54;85.26;96755.63;82042;1295;3012755;-72
2023/11/26 02:53:06;;;;;;;9.50;3.50;;;;;;;2.48;85.56;96747.97;82040;1294;3011521;-73
2023/11/26 02:55:34;;;;;;;4.80;1.70;;;;;;;2.48;85.47;96749.81;80781;1296;3025895;-71
2023/11/26 02:58:02;;;;;;;3.10;1.60;;;;;;;2.80;85.02;96749.09;82072;1297;3011154;-71
2023/11/26 03:00:29;;;;;;;3.20;1.40;;;;;;;3.28;83.65;96726.92;82025;1294;3011414;-70
2023/11/26 03:02:58;;;;;;;3.60;1.20;;;;;;;3.26;83.15;96715.13;80746;1295;3048573;-72
2023/11/26 03:05:26;;;;;;;1.40;1.00;;;;;;;3.12;83.19;96736.06;82041;1294;3011229;-71
2023/11/26 03:08:07;;;;;;;2.70;1.30;;;;;;;2.82;84.12;96740.48;82011;1295;3012701;-71
2023/11/26 03:13:23;;;;;;;2.40;1.00;;;;;;;2.52;85.17;96713.05;80810;1296;3051334;-69
2023/11/26 03:15:50;;;;;;;2.90;1.20;;;;;;;2.23;86.64;96732.06;81979;1296;3012543;-66
2023/11/26 03:18:17;;;;;;;2.20;1.10;;;;;;;2.25;87.04;96730.43;82054;1295;3011644;-72
2023/11/26 03:20:45;;;;;;;1.30;0.90;;;;;;;2.18;87.08;96725.48;80773;1295;3048220;-72
2023/11/26 03:23:13;;;;;;;1.90;0.80;;;;;;;2.66;86.62;96724.85;81959;1295;3018698;-71
2023/11/26 03:25:44;;;;;;;3.10;1.00;;;;;;;3.04;84.70;96719.00;81509;1295;3011265;-68
2023/11/26 03:28:13;;;;;;;2.70;0.90;;;;;;;2.95;84.31;96705.51;82037;1299;3011639;-72
2023/11/26 03:30:42;;;;;;;1.80;0.90;;;;;;;2.82;84.45;96707.98;81493;1297;3011205;-71
2023/11/26 03:33:15;;;;;;;4.00;1.50;;;;;;;2.44;85.98;96706.38;81967;1297;3011425;-67
2023/11/26 03:35:46;;;;;;;2.80;1.50;;;;;;;2.42;86.01;96706.36;80715;1294;3054274;-67
2023/11/26 03:38:13;;;;;;;2.80;1.70;;;;;;;2.02;87.59;96708.69;82022;1294;3012445;-67
2023/11/26 03:40:42;;;;;;;4.10;1.90;;;;;;;1.86;88.79;96702.69;81525;1295;3011147;-71
2023/11/26 03:43:10;;;;;;;5.10;2.20;;;;;;;1.73;89.35;96698.94;82021;1298;3013230;-68
2023/11/26 03:45:41;;;;;;;3.00;1.30;;;;;;;1.67;90.20;96695.38;80788;1297;3050648;-69
2023/11/26 03:48:09;;;;;;;2.20;1.10;;;;;;;2.08;89.81;96694.05;82053;1298;3013110;-69
2023/11/26 03:50:36;;;;;;;3.30;1.00;;;;;;;2.64;87.49;96691.48;82025;1295;3011147;-69
2023/11/26 03:53:04;;;;;;;3.50;0.90;;;;;;;2.78;86.66;96692.06;80780;1294;3049566;-70
2023/11/26 03:55:31;;;;;;;3.10;1.20;;;;;;;2.68;86.13;96693.09;82046;1299;3012336;-68
2023/11/26 03:57:58;;;;;;;2.60;1.20;;;;;;;2.35;86.76;96686.36;82002;1294;3011911;-71
2023/11/26 04:00:26;;;;;;;2.80;1.40;;;;;;;2.25;87.72;96689.45;80781;1296;3051960;-69
2023/11/26 04:02:53;;;;;;;3.00;1.20;;;;;;;2.07;88.31;96686.77;82042;1297;3011723;-69
2023/11/26 04:05:20;;;;;;;2.00;1.40;;;;;;;1.85;89.27;96675.84;82029;1294;3011390;-74
2023/11/26 04:07:48;;;;;;;5.80;1.40;;;;;;;1.85;89.28;96671.48;80777;1295;3048638;-72
2023/11/26 04:10:15;;;;;;;2.00;0.70;;;;;;;1.67;90.15;96668.80;82050;1297;3018457;-71
2023/11/26 04:12:42;;;;;;;2.10;0.90;;;;;;;2.09;90.03;96668.81;82011;1295;3011186;-66
2023/11/26 04:15:11;;;;;;;1.60;0.90;;;;;;;2.42;88.11;96671.64;80785;1297;3026947;-71
2023/11/26 04:17:38;;;;;;;2.70;1.30;;;;;;;2.55;87.09;96677.62;82067;1299;3012601;-68
2023/11/26 04:20:05;;;;;;;2.00;1.30;;;;;;;2.36;86.95;96675.55;82016;1295;3011214;-69
2023/11/26 04:22:34;;;;;;;2.20;1.50;;;;;;;2.19;87.61;96663.63;80756;1294;3047913;-71
2023/11/26 04:25:01;;;;;;;2.30;1.40;;;;;;;2.03;88.64;96670.84;82056;1295;3012681;-72
2023/11/26 04:27:28;;;;;;;2.20;1.10;;;;;;;1.89;89.19;96671.08;82031;1294;3011460;-67
2023/11/26 04:29:57;;;;;;;2.20;1.10;;;;;;;1.85;89.55;96675.28;80781;1297;3053300;-71
2023/11/26 04:32:24;;;;;;;3.00;1.30;;;;;;;1.82;89.89;96688.27;82071;1294;3012636;-69
2023/11/26 04:34:51;;;;;;;1.70;0.90;;;;;;;1.87;89.73;96679.52;82032;1295;3011221;-66
2023/11/26 04:37:19;;;;;;;1.20;0.50;;;;;;;2.43;88.82;96678.47;80764;1294;3046921;-68
2023/11/26 04:39:46;;;;;;;1.90;0.80;;;;;;;3.07;86.38;96679.02;82047;1294;3011405;-69
2023/11/26 04:42:13;;;;;;;4.10;1.00;;;;;;;3.19;84.83;96677.73;81972;1295;3011495;-69
2023/11/26 04:44:42;;;;;;;2.20;0.80;;;;;;;2.99;84.73;96669.05;80800;1296;3026487;-67
2023/11/26 04:47:09;;;;;;;1.90;0.90;;;;;;;2.85;85.14;96658.16;82096;1295;3012690;-75
2023/11/26 04:49:36;;;;;;;1.20;0.80;;;;;;;2.61;85.69;96673.55;82053;1294;3011391;-70
2023/11/26 04:52:05;;;;;;;1.50;1.00;;;;;;;2.36;86.77;96670.38;80801;1294;3048187;-65
2023/11/26 04:54:32;;;;;;;2.00;0.90;;;;;;;2.28;87.20;96678.52;82057;1294;3011150;-69
2023/11/26 04:56:58;;;;;;;1.60;0.90;;;;;;;2.21;87.27;96668.97;82076;1294;3011302;-68
2023/11/26 04:59:27;;;;;;;1.10;0.60;;;;;;;2.19;87.57;96653.96;80779;1297;3050996;-70
2023/11/26 05:01:55;;;;;;;1.30;0.60;;;;;;;2.54;87.65;96650.70;82048;1294;3011707;-67
2023/11/26 05:04:22;;;;;;;0.60;0.60;;;;;;;3.07;85.60;96652.20;82032;1295;3011129;-68
2023/11/26 05:06:50;;;;;;;1.20;0.70;;;;;;;3.14;84.88;96644.77;80775;1295;3048685;-67
2023/11/26 05:09:17;;;;;;;5.50;1.00;;;;;;;3.16;84.43;96656.88;82054;1294;3012839;-68
2023/11/26 05:11:44;;;;;;;2.00;0.70;;;;;;;3.12;84.56;96666.73;82025;1295;3011145;-67
2023/11/26 05:14:13;;;;;;;2.70;0.80;;;;;;;3.06;84.65;96666.95;80787;1299;3026310;-69
2023/11/26 05:16:40;;;;;;;2.80;0.90;;;;;;;2.85;84.99;96675.44;82088;1296;3012771;-71
2023/11/26 05:19:07;;;;;;;1.40;0.80;;;;;;;2.68;85.22;96663.39;82048;1295;3011321;-72
2023/11/26 05:21:35;;;;;;;2.20;1.10;;;;;;;2.34;86.59;96619.73;80752;1295;3046883;-69
2023/11/26 05:24:04;;;;;;;1.50;0.70;;;;;;;2.31;87.39;96634.63;82030;1295;3019415;-71
2023/11/26 05:26:31;;;;;;;2.10;1.00;;;;;;;2.91;86.68;96630.23;82017;1295;3011279;-71
2023/11/26 05:28:59;;;;;;;2.00;1.10;;;;;;;3.46;84.42;96652.23;80773;1299;3051740;-72
2023/11/26 05:31:26;;;;;;;0.90;0.70;;;;;;;3.65;83.37;96657.20;82084;1296;3012587;-69
2023/11/26 05:33:54;;;;;;;4.80;1.30;;;;;;;3.53;83.25;96640.44;82048;1294;3011283;-68
2023/11/26 05:36:25;;;;;;;2.50;1.20;;;;;;;3.41;83.45;96655.00;80815;1294;3047857;-73
2023/11/26 05:38:52;;;;;;;3.10;1.30;;;;;;;3.07;84.18;96659.10;82081;1294;3011361;-72
2023/11/26 05:41:25;;;;;;;3.60;1.60;;;;;;;2.98;84.73;96664.16;81547;1295;3011342;-69
2023/11/26 05:43:52;;;;;;;2.90;1.80;;;;;;;2.85;85.64;96667.48;82055;1294;3011174;-73
2023/11/26 05:46:21;;;;;;;6.30;2.50;;;;;;;2.82;85.83;96668.05;80759;1297;3052668;-70
2023/11/26 05:48:48;;;;;;;3.80;2.20;;;;;;;2.85;86.15;96672.87;82046;1296;3012810;-72
2023/11/26 05:51:20;;;;;;;8.20;1.80;;;;;;;2.96;86.35;96665.30;82021;1295;3011323;-71
2023/11/26 05:53:48;;;;;;;5.90;2.40;;;;;;;3.56;85.10;96663.73;80782;1294;3048045;-71
2023/11/26 05:56:16;;;;;;;4.20;2.60;;;;;;;4.22;82.69;96665.42;82044;1300;3012732;-73
2023/11/26 05:58:42;;;;;;;5.40;3.10;;;;;;;4.45;81.81;96664.96;82060;1294;3011207;-70
2023/11/26 06:01:11;;;;;;;5.80;3.00;;;;;;;4.41;81.58;96665.48;80762;1298;3052240;-69
2023/11/26 06:03:38;;;;;;;7.40;3.00;;;;;;;4.30;81.50;96668.38;82046;1296;3011306;-69
2023/11/26 06:06:05;;;;;;;8.90;4.70;;;;;;;4.07;81.14;96667.05;82069;1295;3011128;-67
2023/11/26 06:08:33;;;;;;;12.50;5.30;;;;;;;3.83;81.64;96658.41;80768;1295;3047193;-69
2023/11/26 06:11:00;;;;;;;11.90;5.70;;;;;;;3.66;82.21;96649.80;82071;1295;3012787;-69
2023/11/26 06:13:27;;;;;;;12.00;6.40;;;;;;;3.50;82.74;96659.72;82032;1294;3011406;-69
2023/11/26 06:15:55;;;;;;;14.60;6.50;;;;;;;3.25;83.53;96641.55;80811;1295;3025920;-71
2023/11/26 06:18:22;;;;;;;15.30;6.10;;;;;;;3.20;84.28;96623.43;82049;1294;3012659;-70
2023/11/26 06:20:49;;;;;;;12.00;5.70;;;;;;;3.23;84.53;96626.44;81996;1296;3011247;-70
2023/11/26 06:23:17;;;;;;;12.80;3.80;;;;;;;3.23;84.77;96624.73;80767;1295;3048570;-67
2023/11/26 06:25:44;;;;;;;9.40;4.10;;;;;;;3.82;83.79;96608.95;82040;1300;3017936;-69
2023/11/26 06:28:13;;;;;;;14.00;5.00;;;;;;;4.59;81.92;96596.02;81998;1299;3011611;-72
2023/11/26 06:30:42;;;;;;;11.30;5.10;;;;;;;4.43;80.20;96597.48;80786;1295;3052411;-68
2023/11/26 06:33:09;;;;;;;12.40;5.60;;;;;;;4.40;80.40;96602.22;82082;1295;3012401;-70
2023/11/26 06:35:35;;;;;;;19.30;7.00;;;;;;;4.23;80.79;96600.87;82106;1294;3011045;-73
2023/11/26 06:38:05;;;;;;;15.90;6.90;;;;;;;4.16;81.26;96597.95;80804;1295;3049227;-70
2023/11/26 06:40:31;;;;;;;18.30;8.70;;;;;;;3.93;81.53;96594.23;82072;1295;3012841;-71
2023/11/26 06:42:58;;;;;;;14.40;7.30;;;;;;;3.79;82.41;96588.41;82020;1294;3011164;-71
2023/11/26 06:45:26;;;;;;;16.60;7.90;;;;;;;3.68;82.80;96574.34;80778;1297;3051587;-71
2023/11/26 06:47:53;;;;;;;12.60;7.00;;;;;;;3.60;82.86;96563.54;82077;1295;3012727;-73
2023/11/26 06:50:21;;;;;;;13.70;6.70;;;;;;;3.54;83.26;96565.06;81999;1296;3011347;-75
2023/11/26 06:52:49;;;;;;;11.30;6.90;;;;;;;3.45;83.42;96567.67;80777;1294;3049122;-73
2023/11/26 06:55:16;;;;;;;9.30;4.90;;;;;;;3.34;84.40;96573.55;82027;1297;3018224;-73
2023/11/26 06:57:43;;;;;;;8.50;4.90;;;;;;;3.91;84.08;96565.11;82013;1295;3011428;-75
2023/11/26 07:00:11;;;;;;;13.20;6.20;;;;;;;4.57;81.87;96552.53;80786;1295;3025586;-71
2023/11/26 07:02:38;;;;;;;8.80;5.20;;;;;;;4.71;81.09;96548.25;82047;1299;3012632;-79
2023/11/26 07:05:07;;;;;;;9.30;5.50;;;;;;;4.72;80.79;96551.29;82031;1295;3011515;-68
2023/11/26 07:07:36;;;;;;;10.00;5.90;;;;;;;4.48;80.86;96548.73;80780;1294;3049144;-66
2023/11/26 07:10:03;;;;;;;9.20;6.30;;;;;;;4.33;81.31;96547.85;82078;1294;3012723;-71
2023/11/26 07:12:31;;;;;;;11.90;6.60;;;;;;;4.23;81.76;96546.39;81995;1296;3011469;-69
2023/11/26 07:14:59;;;;;;;13.60;7.50;;;;;;;4.10;82.32;96542.81;80771;1296;3050308;-65
2023/11/26 07:17:27;;;;;;;17.10;7.30;;;;;;;3.95;82.84;96541.89;82035;1295;3018224;-65
2023/11/26 07:19:54;;;;;;;16.20;8.50;;;;;;;3.96;83.26;96552.41;81990;1298;3011469;-72
2023/11/26 07:22:22;;;;;;;12.10;7.30;;;;;;;4.06;83.69;96558.07;80738;1294;3048679;-69
2023/11/26 07:24:49;;;;;;;8.30;4.60;;;;;;;4.17;83.55;96544.67;82001;1297;3018711;-68
2023/11/26 07:27:16;;;;;;;7.60;3.70;;;;;;;4.70;82.10;96541.16;82002;1294;3011498;-70
2023/11/26 07:29:44;;;;;;;7.60;4.10;;;;;;;5.35;80.41;96544.61;80694;1297;3026493;-75
2023/11/26 07:32:11;;;;;;;5.30;3.00;;;;;;;5.48;78.94;96545.95;82056;1295;3018560;-67
2023/11/26 07:34:38;;;;;;;5.20;3.20;;;;;;;5.39;78.86;96543.75;82071;1295;3012050;-73
2023/11/26 07:37:06;;;;;;;5.30;3.60;;;;;;;5.28;79.21;96541.02;80802;1294;3026111;-66
2023/11/26 07:39:33;;;;;;;4.80;3.00;;;;;;;5.08;79.31;96540.98;82038;1294;3013374;-67
2023/11/26 07:42:00;;;;;;;5.10;2.80;;;;;;;4.89;79.58;96531.83;82027;1294;3011359;-71
2023/11/26 07:44:29;;;;;;;4.00;2.60;;;;;;;4.65;80.29;96527.10;80799;1299;3025875;-69
2023/11/26 07:46:56;;;;;;;4.10;2.80;;;;;;;4.45;81.18;96531.81;82017;1295;3011188;-67
2023/11/26 07:49:23;;;;;;;3.90;2.50;;;;;;;4.39;81.83;96530.73;82070;1294;3011140;-69
2023/11/26 07:51:51;;;;;;;5.50;3.00;;;;;;;4.33;81.99;96533.47;80739;1294;3049862;-70
2023/11/26 07:54:19;;;;;;;4.70;2.80;;;;;;;4.18;82.59;96532.45;82066;1295;3018555;-68
2023/11/26 07:56:46;;;;;;;4.70;2.80;;;;;;;4.17;82.74;96536.65;82059;1294;3011360;-71
2023/11/26 07:59:14;;;;;;;4.30;1.80;;;;;;;4.14;83.17;96523.45;80813;1297;3052646;-69
2023/11/26 08:01:41;;;;;;;5.70;2.20;;;;;;;4.61;82.30;96504.81;82038;1299;3011690;-74
2023/11/26 08:04:08;;;;;;;4.00;2.60;;;;;;;5.15;80.06;96501.00;82043;1294;3011390;-78
2023/11/26 08:06:40;;;;;;;2.90;2.00;;;;;;;5.37;79.71;96502.41;80797;1294;3048450;-67
2023/11/26 08:09:15;;;;;;;3.90;2.00;;;;;;;5.18;79.15;96493.45;80766;1294;3053151;-71
2023/11/26 08:11:44;;;;;;;3.60;2.30;;;;;;;4.97;79.92;96484.52;82003;1300;3018645;-69
2023/11/26 08:14:15;;;;;;;3.10;2.10;;;;;;;4.91;80.60;96483.08;82037;1300;3011278;-68
2023/11/26 08:16:43;;;;;;;5.40;3.00;;;;;;;4.73;80.61;96483.04;80789;1295;3070289;-70
2023/11/26 08:19:17;;;;;;;4.50;3.10;;;;;;;4.66;80.87;96480.81;82061;1294;3018102;-68
2023/11/26 08:21:45;;;;;;;5.30;3.70;;;;;;;4.51;81.10;96479.52;80769;1295;3049084;-69
2023/11/26 08:24:18;;;;;;;5.10;2.90;;;;;;;4.44;81.69;96485.31;82038;1295;3011727;-69
2023/11/26 08:26:46;;;;;;;9.20;3.20;;;;;;;4.24;81.98;96481.18;80755;1300;3052644;-68
2023/11/26 08:29:16;;;;;;;5.20;3.10;;;;;;;4.20;82.60;96484.30;82074;1297;3013054;-72
2023/11/26 08:31:46;;;;;;;5.60;3.30;;;;;;;4.14;82.90;96481.35;80776;1294;3051740;-71
2023/11/26 08:34:16;;;;;;;4.30;2.20;;;;;;;4.06;83.18;96467.98;82027;1294;3011358;-71
2023/11/26 08:36:44;;;;;;;4.80;2.50;;;;;;;4.52;82.67;96454.95;80776;1294;3049100;-65
2023/11/26 08:39:19;;;;;;;4.90;2.50;;;;;;;5.08;80.93;96447.06;82059;1294;3012755;-71
2023/11/26 08:41:48;;;;;;;4.20;2.40;;;;;;;5.20;80.05;96442.09;80794;1296;3053792;-68
2023/11/26 08:44:14;;;;;;;3.60;2.40;;;;;;;5.11;79.98;96436.94;82069;1294;3012474;-68
2023/11/26 08:46:41;;;;;;;3.80;2.50;;;;;;;4.96;80.28;96429.95;82059;1295;3011369;-66
2023/11/26 08:49:10;;;;;;;3.90;2.40;;;;;;;4.73;80.83;96426.39;80758;1295;3056604;-73
2023/11/26 08:51:37;;;;;;;6.40;3.30;;;;;;;4.63;81.21;96425.64;82046;1296;3012843;-68
2023/11/26 08:54:04;;;;;;;8.30;4.00;;;;;;;4.48;81.35;96414.95;82040;1295;3011348;-67
2023/11/26 08:56:32;;;;;;;12.40;5.50;;;;;;;4.36;81.90;96417.33;80791;1300;3051072;-68
2023/11/26 08:58:59;;;;;;;13.00;5.30;;;;;;;4.30;82.22;96410.84;82045;1294;3012509;-72
2023/11/26 09:01:26;;;;;;;10.40;5.00;;;;;;;4.25;82.63;96406.79;82037;1295;3011223;-67
2023/11/26 09:03:56;;;;;;;9.80;4.70;;;;;;;4.16;82.76;96398.70;79343;1294;3498595;-64
2023/11/26 09:06:23;;;;;;;6.40;3.10;;;;;;;4.09;83.32;96387.17;82083;1294;3012383;-65
2023/11/26 09:08:50;;;;;;;6.80;3.50;;;;;;;4.58;82.70;96371.42;82003;1300;3011103;-67
2023/11/26 09:11:18;;;;;;;7.00;3.60;;;;;;;5.19;80.91;96362.88;80787;1295;3052162;-67
2023/11/26 09:13:46;;;;;;;7.80;3.90;;;;;;;5.35;79.91;96364.07;82061;1300;3011126;-66
2023/11/26 09:16:13;;;;;;;9.30;4.90;;;;;;;5.30;79.90;96356.94;82049;1294;3011090;-68
2023/11/26 09:18:41;;;;;;;8.80;5.10;;;;;;;5.07;80.08;96361.15;80757;1294;3054770;-73
2023/11/26 09:21:10;;;;;;;10.60;5.70;;;;;;;4.87;80.94;96351.24;82057;1295;3012740;-67
2023/11/26 09:23:43;;;;;;;10.20;5.70;;;;;;;4.76;81.58;96343.21;81501;1294;3011548;-69
2023/11/26 09:26:11;;;;;;;9.00;5.50;;;;;;;4.52;82.29;96330.53;82026;1294;3011058;-67
2023/11/26 09:28:39;;;;;;;10.80;6.60;;;;;;;4.49;82.57;96331.98;80808;1299;3052367;-67
2023/11/26 09:31:08;;;;;;;10.30;6.80;;;;;;;4.39;82.94;96328.71;82061;1294;3012625;-69
2023/11/26 09:33:38;;;;;;;15.90;7.90;;;;;;;4.32;83.56;96322.05;82022;1294;3011414;-66
2023/11/26 09:36:06;;;;;;;11.90;8.60;;;;;;;4.28;84.01;96316.27;80733;1294;3055464;-67
2023/11/26 09:38:33;;;;;;;11.40;4.80;;;;;;;4.29;84.39;96320.20;82006;1297;3011195;-66
2023/11/26 09:41:00;;;;;;;12.40;5.60;;;;;;;4.80;83.25;96300.67;81856;1295;3011295;-66
2023/11/26 09:43:31;;;;;;;13.50;6.30;;;;;;;5.40;81.39;96294.58;80780;1300;3050057;-66
2023/11/26 09:46:04;;;;;;;8.40;5.30;;;;;;;5.58;80.68;96295.52;81997;1299;3011283;-68
2023/11/26 09:48:32;;;;;;;11.60;6.40;;;;;;;5.54;80.56;96294.20;80739;1294;3067292;-65
2023/11/26 09:50:59;;;;;;;9.40;6.50;;;;;;;5.29;80.61;96289.65;82060;1294;3013759;-69
2023/11/26 09:53:25;;;;;;;11.90;6.70;;;;;;;4.89;81.68;96273.55;81998;1295;3011464;-65
2023/11/26 09:55:54;;;;;;;13.30;7.30;;;;;;;4.83;82.48;96275.61;80756;1294;3027207;-65
2023/11/26 09:58:20;;;;;;;14.20;7.70;;;;;;;4.76;82.81;96268.79;82038;1294;3013287;-65
2023/11/26 10:00:47;;;;;;;12.30;7.00;;;;;;;4.62;83.32;96259.95;82013;1299;3011283;-68
2023/11/26 10:03:15;;;;;;;14.70;7.00;;;;;;;4.57;83.66;96256.76;80781;1295;3027524;-68
2023/11/26 10:05:42;;;;;;;12.80;7.60;;;;;;;4.46;84.34;96256.12;82071;1295;3012917;-67
2023/11/26 10:08:28;;;;;;;8.20;4.20;;;;;;;4.45;84.63;96243.90;82039;1295;3011274;-64
2023/11/26 10:10:56;;;;;;;11.40;5.90;;;;;;;5.11;83.91;96236.19;80764;1295;3052773;-68
2023/11/26 10:13:24;;;;;;;10.90;5.60;;;;;;;5.56;81.38;96227.89;82038;1294;3011461;-68
2023/11/26 10:15:51;;;;;;;10.00;5.40;;;;;;;5.77;81.65;96216.77;81922;1299;3011332;-70
2023/11/26 10:18:19;;;;;;;10.40;5.80;;;;;;;5.69;81.59;96218.80;80775;1295;3068138;-69
2023/11/26 10:20:50;;;;;;;12.00;5.80;;;;;;;5.48;81.73;96210.36;82079;1295;3018170;-65
2023/11/26 10:23:24;;;;;;;10.90;6.60;;;;;;;5.32;82.17;96202.27;80776;1295;3049613;-67
2023/11/26 10:25:51;;;;;;;12.00;5.70;;;;;;;5.25;82.62;96192.11;82049;1295;3011488;-68
2023/11/26 10:28:19;;;;;;;13.50;6.50;;;;;;;5.19;83.03;96200.47;80806;1295;3050241;-69
2023/11/26 10:30:46;;;;;;;12.10;6.40;;;;;;;5.11;83.56;96196.57;82032;1300;3018371;-67
2023/11/26 10:33:13;;;;;;;14.40;6.70;;;;;;;5.03;83.84;96193.42;82016;1300;3011510;-69
2023/11/26 10:35:54;;;;;;;8.20;3.80;;;;;;;4.94;84.76;96190.73;80759;1295;3026455;-66
2023/11/26 10:38:34;;;;;;;9.90;5.80;;;;;;;5.53;83.85;96178.23;80790;1294;3055697;-66
2023/11/26 10:41:03;;;;;;;11.10;5.50;;;;;;;6.11;81.52;96170.46;80756;1296;3048242;-65
2023/11/26 10:43:31;;;;;;;8.40;4.80;;;;;;;6.24;80.71;96161.30;81980;1295;3013032;-63
2023/11/26 10:45:59;;;;;;;8.70;4.80;;;;;;;6.16;81.02;96159.92;81994;1294;3010956;-64
2023/11/26 10:48:27;;;;;;;12.30;5.60;;;;;;;5.94;81.34;96158.31;80685;1300;3052794;-66
2023/11/26 10:51:10;;;;;;;11.60;6.00;;;;;;;5.73;81.46;96146.10;82057;1298;3018128;-64
2023/11/26 10:53:55;;;;;;;12.10;6.10;;;;;;;5.51;82.59;96130.59;80702;1296;3057057;-65
2023/11/26 10:56:39;;;;;;;10.60;6.30;;;;;;;5.38;83.03;96125.18;80709;1300;3049137;-63
2023/11/26 10:59:08;;;;;;;13.40;6.90;;;;;;;5.20;83.94;96115.20;80769;1296;3053358;-66
2023/11/26 11:01:36;;;;;;;13.40;7.00;;;;;;;5.14;84.53;96113.84;82062;1297;3012813;-66
2023/11/26 11:04:11;;;;;;;9.50;4.50;;;;;;;5.16;84.27;96114.52;81544;1298;3011432;-66
2023/11/26 11:06:38;;;;;;;9.40;4.60;;;;;;;5.55;83.67;96101.56;81968;1297;3011583;-64
2023/11/26 11:09:12;;;;;;;10.30;5.60;;;;;;;6.09;82.32;96092.44;80772;1298;3068323;-65
2023/11/26 11:12:12;;;;;;;11.00;5.20;;;;;;;6.19;81.44;96086.98;81984;1297;3011152;-64
2023/11/26 11:14:40;;;;;;;10.80;5.90;;;;;;;6.07;81.78;96082.93;80774;1295;3057016;-65
2023/11/26 11:17:07;;;;;;;11.10;6.50;;;;;;;5.88;82.53;96076.36;82029;1295;3018154;-64
2023/11/26 11:19:51;;;;;;;13.10;7.00;;;;;;;5.79;82.91;96066.65;82024;1296;3011611;-63
2023/11/26 11:22:19;;;;;;;10.70;7.40;;;;;;;5.67;83.47;96063.93;80751;1296;3052679;-63
2023/11/26 11:24:46;;;;;;;14.20;7.20;;;;;;;5.57;83.82;96059.71;82070;1298;3012890;-63
2023/11/26 11:27:13;;;;;;;15.90;7.70;;;;;;;5.31;84.82;96059.66;82026;1296;3011336;-64
2023/11/26 11:29:42;;;;;;;8.40;4.70;;;;;;;5.28;85.65;96058.09;80709;1295;3056109;-64
2023/11/26 11:32:11;;;;;;;8.80;5.40;;;;;;;5.79;84.63;96052.56;82050;1295;3011281;-64